Time;durP1;ratioP1;P1;durP2;ratioP2;P2;SDS_P1;SDS_P2;PMS_P1;PMS_P2;Temp;Humidity;BMP_temperature;BMP_pressure;BME280_temperature;BME280_humidity;BME280_pressure;Samples;Min_cycle;Max_cycle;Signal;HPM_P1;HPM_P2
2021/12/27 00:00:41;;;;;;;21.83;7.68;;;-8.70;99.90;;;-10.90;88.88;100242.66;6209589;22;20008;-74
2021/12/27 00:03:07;;;;;;;39.20;12.35;;;-8.60;99.90;;;-10.82;89.16;100242.09;6190324;22;19996;-74
2021/12/27 00:05:33;;;;;;;42.55;13.40;;;-8.60;99.90;;;-10.81;88.77;100240.41;6190602;22;20397;-77
2021/12/27 00:07:59;;;;;;;37.25;11.50;;;-8.60;99.90;;;-10.84;88.54;100237.72;6169001;22;20118;-74
2021/12/27 00:10:28;;;;;;;12.25;4.10;;;-8.50;99.90;;;-10.80;88.40;100231.94;6178369;23;20000;-75
2021/12/27 00:12:54;;;;;;;30.52;11.20;;;-8.50;99.90;;;-10.71;88.70;100238.97;6182077;22;20020;-74
2021/12/27 00:15:20;;;;;;;33.42;11.07;;;-8.40;99.90;;;-10.70;88.13;100233.09;6206928;22;20027;-75
2021/12/27 00:17:50;;;;;;;36.80;11.05;;;-8.40;99.90;;;-10.74;87.65;100227.91;6192889;22;20032;-74
2021/12/27 00:20:20;;;;;;;37.30;10.02;;;-8.50;99.90;;;-10.73;87.38;100233.88;6218482;22;20019;-74
2021/12/27 00:22:48;;;;;;;42.38;13.05;;;-8.50;99.90;;;-10.77;87.05;100226.97;6179321;22;20004;-75
2021/12/27 00:25:15;;;;;;;37.55;11.57;;;-8.50;99.90;;;-10.79;87.08;100228.59;6179445;22;20095;-74
2021/12/27 00:27:42;;;;;;;38.75;12.05;;;-8.50;99.90;;;-10.71;87.82;100232.25;6203703;22;20032;-74
2021/12/27 00:30:11;;;;;;;37.78;10.48;;;-8.50;99.90;;;-10.75;87.14;100225.31;6175538;22;20000;-74
2021/12/27 00:32:38;;;;;;;33.45;11.85;;;-8.40;99.90;;;-10.75;86.81;100220.25;6190689;23;20034;-74
2021/12/27 00:35:09;;;;;;;38.03;12.40;;;-8.40;99.90;;;-10.69;87.13;100229.72;6192254;22;20005;-75
2021/12/27 00:37:35;;;;;;;39.58;9.48;;;-8.40;99.90;;;-10.72;86.89;100222.88;6202981;22;19993;-74
2021/12/27 00:40:03;;;;;;;48.83;13.77;;;-8.40;99.90;;;-10.62;87.61;100239.28;6192367;22;20002;-74
2021/12/27 00:42:29;;;;;;;41.67;9.82;;;-8.30;99.90;;;-10.54;87.81;100248.88;6188801;22;20008;-75
2021/12/27 00:44:55;;;;;;;37.53;12.15;;;-8.30;99.90;;;-10.48;87.66;100247.34;6203218;22;20005;-74
2021/12/27 00:47:20;;;;;;;40.28;12.75;;;-8.20;99.90;;;-10.41;87.79;100250.13;6219826;22;20046;-75
2021/12/27 00:49:49;;;;;;;47.83;14.13;;;-8.20;99.90;;;-10.37;87.57;100251.91;6176634;23;20091;-75
2021/12/27 00:52:15;;;;;;;47.25;14.32;;;-8.10;99.90;;;-10.37;87.58;100241.75;6182874;22;20008;-75
2021/12/27 00:54:41;;;;;;;42.40;9.55;;;-8.10;99.90;;;-10.35;88.00;100236.69;6169102;23;20450;-74
2021/12/27 00:57:07;;;;;;;44.08;14.30;;;-8.10;99.90;;;-10.24;88.03;100239.53;6191122;22;20015;-74
2021/12/27 00:59:33;;;;;;;41.38;14.75;;;-8.00;99.90;;;-10.17;87.71;100242.31;6192687;22;20390;-76
2021/12/27 01:01:59;;;;;;;43.60;14.52;;;-7.90;99.90;;;-10.09;87.77;100244.22;6205917;22;20012;-75
2021/12/27 01:04:25;;;;;;;49.17;16.42;;;-7.80;99.90;;;-10.00;87.56;100245.34;6202441;22;20451;-75
2021/12/27 01:06:51;;;;;;;51.40;13.32;;;-7.80;99.90;;;-9.90;87.89;100246.47;6194815;22;20027;-75
2021/12/27 01:09:56;;;;;;;49.80;15.48;;;-7.70;99.90;;;-9.83;87.60;100248.34;6218592;22;20549;-74
2021/12/27 01:15:21;;;;;;;30.98;9.70;;;-7.60;99.90;;;-9.71;86.47;100246.16;6207639;22;20020;-74
2021/12/27 01:17:41;;;;;;;41.67;12.95;;;-7.50;99.90;;;-9.65;86.73;100242.03;6191919;22;20392;-75
2021/12/27 01:20:15;;;;;;;52.70;12.13;;;-7.40;99.90;;;-9.62;86.92;100237.03;6181442;22;20011;-75
2021/12/27 01:22:42;;;;;;;37.13;11.98;;;-7.40;99.90;;;-9.55;86.04;100244.88;6178172;22;20023;-76
2021/12/27 01:25:10;;;;;;;35.88;12.93;;;-7.30;99.90;;;-9.49;85.49;100250.13;6174122;22;20011;-74
2021/12/27 01:27:36;;;;;;;47.67;14.15;;;-7.30;99.90;;;-9.44;85.31;100242.59;6216956;22;20016;-77
2021/12/27 01:30:07;;;;;;;46.70;15.52;;;-7.20;99.90;;;-9.43;85.29;100249.44;6135470;22;20004;-76
2021/12/27 01:32:38;;;;;;;49.75;15.88;;;-7.20;99.90;;;-9.42;85.63;100250.31;6195407;23;20087;-77
2021/12/27 01:35:08;;;;;;;41.40;14.68;;;-7.20;99.90;;;-9.39;84.91;100245.31;6139704;23;20095;-77
2021/12/27 01:37:34;;;;;;;49.70;17.40;;;-7.20;99.90;;;-9.35;84.19;100247.09;6097355;23;20067;-76
2021/12/27 01:40:03;;;;;;;40.70;12.95;;;-7.20;99.90;;;-9.40;83.85;100239.31;6139765;22;20001;-75
2021/12/27 01:42:29;;;;;;;37.00;10.68;;;-7.10;99.90;;;-9.41;84.05;100236.75;6179433;23;20055;-78
2021/12/27 01:44:55;;;;;;;52.30;13.25;;;-7.20;99.90;;;-9.43;83.68;100236.72;6174531;22;20445;-77
2021/12/27 01:47:21;;;;;;;52.03;16.90;;;-7.10;99.90;;;-9.39;83.45;100235.97;6125080;22;19997;-76
2021/12/27 01:49:50;;;;;;;59.50;16.80;;;-7.10;99.90;;;-9.39;83.89;100235.13;6179196;22;20528;-77
2021/12/27 01:52:16;;;;;;;53.33;16.98;;;-7.20;99.90;;;-9.42;83.55;100225.66;6216366;22;20012;-77
2021/12/27 01:54:42;;;;;;;48.70;14.75;;;-7.20;99.90;;;-9.46;84.05;100228.97;6174906;23;20016;-76
2021/12/27 01:57:08;;;;;;;43.78;14.23;;;-7.20;99.90;;;-9.49;84.61;100214.44;6207647;22;20016;-77
2021/12/27 01:59:34;;;;;;;43.95;16.08;;;-7.20;99.90;;;-9.50;83.32;100212.75;6160059;23;20683;-77
2021/12/27 02:01:59;;;;;;;47.83;17.33;;;-7.20;99.90;;;-9.49;83.45;100216.16;6151926;22;20011;-77
2021/12/27 02:04:30;;;;;;;51.03;16.90;;;-7.20;99.90;;;-9.53;83.67;100210.09;6144582;23;20012;-77
2021/12/27 02:06:56;;;;;;;52.88;15.90;;;-7.20;99.90;;;-9.54;84.20;100215.19;6201309;22;20046;-77
2021/12/27 02:09:31;;;;;;;55.17;16.75;;;-7.30;99.90;;;-9.56;83.63;100209.16;6191695;22;20023;-79
2021/12/27 02:11:59;;;;;;;48.05;15.43;;;-7.30;99.90;;;-9.58;83.56;100213.38;6181125;23;20470;-79
2021/12/27 02:14:25;;;;;;;55.15;18.25;;;-7.30;99.90;;;-9.60;83.13;100204.81;6098152;23;20049;-80
2021/12/27 02:16:51;;;;;;;58.70;19.63;;;-7.30;99.90;;;-9.67;83.79;100195.25;6162053;22;20070;-80
2021/12/27 02:19:17;;;;;;;53.25;20.02;;;-7.40;99.90;;;-9.71;83.44;100186.69;6179766;22;20083;-77
2021/12/27 02:21:43;;;;;;;54.25;18.38;;;-7.40;99.90;;;-9.77;83.91;100182.28;6149014;22;20455;-77
2021/12/27 02:24:11;;;;;;;57.58;15.25;;;-7.50;99.90;;;-9.87;83.32;100167.56;6134663;22;20123;-77
2021/12/27 02:26:37;;;;;;;68.65;18.98;;;-7.50;99.90;;;-9.91;83.44;100163.25;6197806;22;20000;-77
2021/12/27 02:29:03;;;;;;;45.72;16.17;;;-7.60;99.90;;;-9.99;83.89;100154.53;6192072;22;20012;-77
2021/12/27 02:31:29;;;;;;;58.22;18.35;;;-7.70;99.90;;;-10.04;83.04;100144.22;6117287;22;20020;-77
2021/12/27 02:33:54;;;;;;;37.80;10.60;;;-7.70;99.90;;;-10.11;83.45;100135.53;6115377;23;20080;-77
2021/12/27 02:36:24;;;;;;;58.30;18.48;;;-7.70;99.90;;;-10.07;83.64;100135.63;6199785;22;20038;-75
2021/12/27 02:38:50;;;;;;;50.60;17.63;;;-7.80;99.90;;;-10.11;83.63;100130.47;6191340;22;20410;-75
2021/12/27 02:41:16;;;;;;;60.45;19.10;;;-7.80;99.90;;;-10.13;83.83;100127.00;6221328;22;20012;-75
2021/12/27 02:43:43;;;;;;;62.70;20.58;;;-7.80;99.90;;;-10.15;83.55;100118.47;6161886;22;20011;-78
2021/12/27 02:46:14;;;;;;;64.07;19.88;;;-7.80;99.90;;;-10.18;83.90;100126.00;6131877;22;20004;-79
2021/12/27 02:48:46;;;;;;;78.00;20.48;;;-7.90;99.90;;;-10.18;84.05;100120.91;6181171;22;20027;-78
2021/12/27 02:51:14;;;;;;;65.10;21.05;;;-7.90;99.90;;;-10.26;84.46;100111.34;6140855;23;20018;-78
2021/12/27 02:53:40;;;;;;;71.55;20.90;;;-7.90;99.90;;;-10.28;84.80;100113.81;6171818;23;20008;-78
2021/12/27 02:56:10;;;;;;;67.82;20.35;;;-8.00;99.90;;;-10.26;84.65;100114.72;6077214;23;20012;-79
2021/12/27 02:58:39;;;;;;;69.80;18.85;;;-8.00;99.90;;;-10.31;85.06;100103.59;6161816;22;20038;-80
2021/12/27 03:01:20;;;;;;;62.90;19.75;;;-8.00;99.90;;;-10.33;84.84;100100.16;6141699;22;20678;-80
2021/12/27 03:03:47;;;;;;;58.70;18.63;;;-8.00;99.90;;;-10.36;84.70;100095.00;6194845;22;20012;-79
2021/12/27 03:06:14;;;;;;;65.25;18.45;;;-8.00;99.90;;;-10.33;85.27;100095.91;6118913;22;20037;-79
2021/12/27 03:08:45;;;;;;;69.50;19.95;;;-8.00;99.90;;;-10.33;84.97;100102.69;6147153;22;20011;-78
2021/12/27 03:11:11;;;;;;;63.42;19.00;;;-8.00;99.90;;;-10.28;84.55;100110.44;6151260;23;20058;-79
2021/12/27 03:13:44;;;;;;;52.97;16.95;;;-8.00;99.90;;;-10.32;84.88;100110.38;6112687;23;20016;-77
2021/12/27 03:16:17;;;;;;;67.80;19.50;;;-8.00;99.90;;;-10.29;85.44;100117.25;6110761;22;20019;-78
2021/12/27 03:18:50;;;;;;;65.22;19.50;;;-8.00;99.90;;;-10.33;84.65;100111.19;6136176;22;20073;-78
2021/12/27 03:21:19;;;;;;;67.13;20.15;;;-8.00;99.90;;;-10.37;85.10;100101.75;6144466;22;20091;-78
2021/12/27 03:23:48;;;;;;;64.32;19.73;;;-8.10;99.90;;;-10.43;85.36;100095.63;6181365;22;20430;-78
2021/12/27 03:26:14;;;;;;;60.35;19.80;;;-8.10;99.90;;;-10.48;84.50;100082.78;6179857;22;20008;-77
2021/12/27 03:28:45;;;;;;;66.82;19.85;;;-8.10;99.90;;;-10.49;84.48;100096.34;6146533;22;20012;-80
2021/12/27 03:31:12;;;;;;;56.15;20.55;;;-8.10;99.90;;;-10.47;85.29;100083.63;6145843;23;20032;-79
2021/12/27 03:33:38;;;;;;;72.15;20.23;;;-8.10;99.90;;;-10.50;85.05;100073.38;6117869;23;20016;-78
2021/12/27 03:36:07;;;;;;;32.05;9.98;;;-8.20;99.90;;;-10.62;85.30;100064.59;6175022;22;20008;-79
2021/12/27 03:38:46;;;;;;;38.20;10.68;;;-8.20;99.90;;;-10.63;84.59;100052.66;6130305;22;20018;-78
2021/12/27 03:41:17;;;;;;;66.85;19.13;;;-8.20;99.90;;;-10.55;84.53;100052.91;6171560;22;20008;-77
2021/12/27 03:43:43;;;;;;;50.92;16.20;;;-8.20;99.90;;;-10.50;84.73;100055.56;6136579;22;20004;-78
2021/12/27 03:46:11;;;;;;;37.30;11.10;;;-8.10;99.90;;;-10.48;84.48;100059.00;6189145;23;20009;-79
2021/12/27 03:48:37;;;;;;;54.58;16.35;;;-8.10;99.90;;;-10.42;84.74;100061.72;6157986;22;20465;-78
2021/12/27 03:51:05;;;;;;;54.05;15.93;;;-8.10;99.90;;;-10.37;84.71;100055.94;6119885;22;20074;-77
2021/12/27 03:53:34;;;;;;;46.85;14.05;;;-8.10;99.90;;;-10.34;84.63;100062.81;6157607;23;20382;-78
2021/12/27 03:56:00;;;;;;;51.25;15.25;;;-8.00;99.90;;;-10.30;84.52;100066.28;6195065;22;20083;-76
2021/12/27 03:58:31;;;;;;;46.00;14.00;;;-8.00;99.90;;;-10.27;84.16;100062.09;6167419;22;20010;-78
2021/12/27 04:01:13;;;;;;;29.17;8.15;;;-8.00;99.90;;;-10.22;83.56;100059.69;6199085;22;20024;-75
2021/12/27 04:03:42;;;;;;;48.22;13.82;;;-7.90;99.90;;;-10.14;83.11;100061.59;6190654;23;20011;-76
2021/12/27 04:06:08;;;;;;;35.03;9.90;;;-7.90;99.90;;;-10.13;82.93;100050.63;6212152;22;20115;-78
2021/12/27 04:08:34;;;;;;;51.58;14.82;;;-7.80;99.90;;;-10.08;82.19;100054.94;6122383;22;20459;-79
2021/12/27 04:11:00;;;;;;;48.65;13.43;;;-7.80;99.90;;;-10.00;82.65;100050.91;6152294;23;20039;-79
2021/12/27 04:13:26;;;;;;;29.13;9.82;;;-7.80;99.90;;;-9.95;82.04;100054.44;6155462;22;20066;-79
2021/12/27 04:16:01;;;;;;;55.45;14.80;;;-7.70;99.90;;;-9.89;81.83;100054.59;6170421;22;20059;-81
2021/12/27 04:18:27;;;;;;;46.08;13.55;;;-7.70;99.90;;;-9.83;81.64;100058.97;6159894;22;20392;-77
2021/12/27 04:20:53;;;;;;;41.75;12.38;;;-7.60;99.90;;;-9.77;81.40;100059.13;6168711;22;20083;-79
2021/12/27 04:23:19;;;;;;;38.70;13.05;;;-7.50;99.90;;;-9.70;80.55;100061.00;6168160;23;20012;-76
2021/12/27 04:25:46;;;;;;;46.10;11.52;;;-7.50;99.90;;;-9.65;79.90;100059.44;6210255;22;20457;-76
2021/12/27 04:28:13;;;;;;;36.65;10.65;;;-7.40;99.90;;;-9.58;79.74;100063.00;6217564;22;20091;-77
2021/12/27 04:30:39;;;;;;;46.17;13.65;;;-7.30;99.90;;;-9.54;78.68;100055.47;6175156;23;20051;-77
2021/12/27 04:33:05;;;;;;;41.08;13.77;;;-7.30;99.90;;;-9.48;79.04;100057.28;6199779;22;20012;-74
2021/12/27 04:35:32;;;;;;;30.73;7.28;;;-7.20;99.90;;;-9.41;78.55;100064.25;6184259;23;20028;-75
2021/12/27 04:37:59;;;;;;;49.60;13.70;;;-7.20;99.90;;;-9.36;78.33;100062.66;6239789;23;20008;-74
2021/12/27 04:40:29;;;;;;;40.72;13.85;;;-7.10;99.90;;;-9.34;77.66;100053.34;6210709;22;20036;-73
2021/12/27 04:43:08;;;;;;;47.13;13.15;;;-7.10;99.90;;;-9.30;77.67;100065.34;6194100;22;20079;-73
2021/12/27 04:45:34;;;;;;;36.85;12.10;;;-7.10;99.90;;;-9.27;77.82;100066.25;6195845;22;20008;-77
2021/12/27 04:48:01;;;;;;;37.80;12.55;;;-7.10;99.90;;;-9.27;78.15;100062.00;6195610;22;20011;-77
2021/12/27 04:50:28;;;;;;;45.15;13.25;;;-7.00;99.90;;;-9.29;78.18;100056.00;6210500;22;20019;-76
2021/12/27 04:52:54;;;;;;;48.38;13.80;;;-7.00;99.90;;;-9.27;77.78;100056.06;6208331;22;20005;-77
2021/12/27 04:55:26;;;;;;;46.08;14.55;;;-7.00;99.90;;;-9.31;78.13;100050.91;6206086;22;20015;-76
2021/12/27 04:57:52;;;;;;;48.78;14.30;;;-7.10;99.90;;;-9.36;78.10;100044.81;6218678;22;20004;-77
2021/12/27 05:00:19;;;;;;;49.13;14.65;;;-7.10;99.90;;;-9.38;78.28;100028.63;6218398;22;20000;-76
2021/12/27 05:02:45;;;;;;;42.08;13.23;;;-7.10;99.90;;;-9.44;77.49;100027.63;6224428;23;20414;-76
2021/12/27 05:05:11;;;;;;;50.55;13.27;;;-7.10;99.90;;;-9.44;77.49;100018.28;6221820;22;20008;-77
2021/12/27 05:07:37;;;;;;;43.67;13.80;;;-7.10;99.90;;;-9.45;78.09;100016.56;6218129;22;20008;-76
2021/12/27 05:10:05;;;;;;;23.50;7.38;;;-7.10;99.90;;;-9.50;78.20;100003.72;6207538;22;20030;-77
2021/12/27 05:12:31;;;;;;;32.53;9.82;;;-7.20;99.90;;;-9.55;77.92;99991.69;6219162;22;20008;-77
2021/12/27 05:14:57;;;;;;;30.05;8.60;;;-7.20;99.90;;;-9.53;78.48;99997.69;6218406;22;20000;-77
2021/12/27 05:17:22;;;;;;;45.60;14.48;;;-7.20;99.90;;;-9.52;78.09;100005.38;6205516;22;20422;-78
2021/12/27 05:19:48;;;;;;;48.67;15.60;;;-7.20;99.90;;;-9.51;78.18;100012.19;6176802;23;20054;-77
2021/12/27 05:22:14;;;;;;;37.17;13.48;;;-7.20;99.90;;;-9.55;78.64;100005.28;6201291;22;20008;-77
2021/12/27 05:24:40;;;;;;;44.67;11.30;;;-7.20;99.90;;;-9.58;78.48;99989.09;6167463;22;20483;-77
2021/12/27 05:27:09;;;;;;;44.10;13.50;;;-7.30;99.90;;;-9.57;78.11;99985.69;6179991;22;20012;-76
2021/12/27 05:29:37;;;;;;;37.72;13.13;;;-7.30;99.90;;;-9.62;78.82;99977.09;6222012;22;20020;-76
2021/12/27 05:32:04;;;;;;;46.30;14.70;;;-7.30;99.90;;;-9.64;79.06;99978.75;6218604;22;20376;-77
2021/12/27 05:34:30;;;;;;;46.50;15.27;;;-7.30;99.90;;;-9.62;79.06;99972.84;6192100;22;20342;-77
2021/12/27 05:37:02;;;;;;;43.90;13.35;;;-7.30;99.90;;;-9.65;78.66;99971.91;6184025;22;20114;-79
2021/12/27 05:39:28;;;;;;;36.83;12.32;;;-7.30;99.90;;;-9.65;78.46;99977.00;6217782;22;20105;-77
2021/12/27 05:41:53;;;;;;;42.20;12.80;;;-7.30;99.90;;;-9.67;78.80;99968.47;6204400;22;20059;-78
2021/12/27 05:44:19;;;;;;;45.05;13.88;;;-7.40;99.90;;;-9.72;79.25;99964.16;6208209;22;20004;-77
2021/12/27 05:46:46;;;;;;;43.65;13.60;;;-7.30;99.90;;;-9.72;78.87;99945.44;6191696;22;20019;-77
2021/12/27 05:49:14;;;;;;;46.92;12.80;;;-7.40;99.90;;;-9.72;78.87;99950.53;6206182;22;22260;-76
2021/12/27 05:51:43;;;;;;;44.40;13.07;;;-7.40;99.90;;;-9.73;78.88;99954.78;6194850;22;20015;-77
2021/12/27 05:54:12;;;;;;;44.20;13.63;;;-7.40;99.90;;;-9.76;78.86;99957.25;6190404;22;20031;-77
2021/12/27 05:56:39;;;;;;;44.45;14.13;;;-7.40;99.90;;;-9.73;79.02;99953.91;6218093;22;20008;-78
2021/12/27 05:59:12;;;;;;;43.28;13.45;;;-7.40;99.90;;;-9.78;78.89;99946.19;6167328;22;20008;-77
2021/12/27 06:01:38;;;;;;;49.10;13.68;;;-7.40;99.90;;;-9.75;78.94;99941.13;6172539;22;20008;-77
2021/12/27 06:04:05;;;;;;;27.35;11.23;;;-7.40;99.90;;;-9.76;78.64;99936.88;6204562;22;20004;-77
2021/12/27 06:06:31;;;;;;;38.60;11.40;;;-7.40;99.90;;;-9.71;78.33;99952.28;6214862;22;20091;-77
2021/12/27 06:08:56;;;;;;;41.97;12.55;;;-7.40;99.90;;;-9.68;78.71;99951.47;6204725;22;20020;-78
2021/12/27 06:11:22;;;;;;;37.75;11.82;;;-7.40;99.90;;;-9.65;78.82;99942.22;6193648;22;20012;-77
2021/12/27 06:13:50;;;;;;;36.30;12.02;;;-7.40;99.90;;;-9.63;78.68;99945.66;6189164;22;19997;-77
2021/12/27 06:16:16;;;;;;;40.40;12.40;;;-7.30;99.90;;;-9.63;78.16;99940.56;6173102;23;20054;-77
2021/12/27 06:18:43;;;;;;;46.28;14.05;;;-7.30;99.90;;;-9.59;78.61;99941.47;6204035;22;20008;-78
2021/12/27 06:21:09;;;;;;;32.88;11.73;;;-7.30;99.90;;;-9.53;78.16;99941.63;6180405;22;20012;-78
2021/12/27 06:23:34;;;;;;;46.83;12.43;;;-7.30;99.90;;;-9.54;78.72;99940.75;6151173;22;20075;-78
2021/12/27 06:26:01;;;;;;;47.38;13.70;;;-7.30;99.90;;;-9.55;77.98;99931.38;6180505;22;20095;-78
2021/12/27 06:28:28;;;;;;;42.58;12.63;;;-7.30;99.90;;;-9.53;77.63;99936.53;6203918;22;20012;-78
2021/12/27 06:30:54;;;;;;;45.75;13.00;;;-7.30;99.90;;;-9.56;78.32;99942.41;6155986;22;20402;-78
2021/12/27 06:33:20;;;;;;;42.15;13.25;;;-7.30;99.90;;;-9.58;77.74;99943.22;6167574;22;20002;-77
2021/12/27 06:35:45;;;;;;;46.90;13.43;;;-7.30;99.90;;;-9.59;78.19;99938.94;6205090;22;20011;-77
2021/12/27 06:38:11;;;;;;;47.10;17.00;;;-7.30;99.90;;;-9.57;78.44;99940.69;6162166;23;20007;-77
2021/12/27 06:40:37;;;;;;;47.03;14.18;;;-7.30;99.90;;;-9.62;77.69;99949.06;6162714;22;20000;-78
2021/12/27 06:43:03;;;;;;;28.02;10.25;;;-7.30;99.90;;;-9.66;77.32;99937.09;6153864;23;20470;-78
2021/12/27 06:45:29;;;;;;;47.65;13.30;;;-7.30;99.90;;;-9.60;78.75;99955.06;6163679;22;20015;-78
2021/12/27 06:47:57;;;;;;;36.17;12.13;;;-7.30;99.90;;;-9.60;78.33;99945.72;6178336;23;20062;-78
2021/12/27 06:50:23;;;;;;;42.55;13.23;;;-7.30;99.90;;;-9.62;78.16;99941.41;6216713;22;20004;-79
2021/12/27 06:52:50;;;;;;;47.45;14.18;;;-7.30;99.90;;;-9.57;78.61;99950.00;6109149;22;20015;-78
2021/12/27 06:55:17;;;;;;;43.75;13.13;;;-7.30;99.90;;;-9.55;77.70;99945.81;6097226;22;20018;-78
2021/12/27 06:57:44;;;;;;;40.35;12.05;;;-7.30;99.90;;;-9.53;78.42;99951.81;6192821;22;20075;-76
2021/12/27 07:00:14;;;;;;;38.08;12.70;;;-7.30;99.90;;;-9.50;77.31;99946.81;6156787;22;20058;-77
2021/12/27 07:02:40;;;;;;;28.00;8.57;;;-7.20;99.90;;;-9.45;76.94;99950.28;6216604;22;19999;-78
2021/12/27 07:05:08;;;;;;;38.38;13.15;;;-7.20;99.90;;;-9.40;76.96;99946.16;6204006;22;19996;-77
2021/12/27 07:07:34;;;;;;;43.67;12.80;;;-7.10;99.90;;;-9.36;77.56;99953.03;6164516;22;20098;-78
2021/12/27 07:09:59;;;;;;;41.15;10.95;;;-7.10;99.90;;;-9.37;77.50;99953.00;6190240;22;20040;-77
2021/12/27 07:12:25;;;;;;;50.75;12.73;;;-7.10;99.90;;;-9.32;77.20;99948.88;6215174;22;20070;-77
2021/12/27 07:14:53;;;;;;;44.10;11.38;;;-7.00;99.90;;;-9.29;77.00;99943.81;6219254;22;20012;-77
2021/12/27 07:17:19;;;;;;;36.53;11.38;;;-7.00;99.90;;;-9.24;76.62;99943.91;6217002;22;20014;-77
2021/12/27 07:19:46;;;;;;;34.58;11.25;;;-7.00;99.90;;;-9.22;76.24;99960.09;6226158;22;20087;-77
2021/12/27 07:22:12;;;;;;;32.58;10.10;;;-7.00;99.90;;;-9.17;76.55;99955.97;6233617;22;20152;-77
2021/12/27 07:24:37;;;;;;;27.48;9.20;;;-6.90;99.90;;;-9.15;76.26;99954.31;6153638;22;20020;-77
2021/12/27 07:27:05;;;;;;;29.10;8.75;;;-6.90;99.90;;;-9.12;75.63;99947.56;6190900;22;20011;-77
2021/12/27 07:29:31;;;;;;;37.55;11.43;;;-6.80;99.90;;;-9.08;75.51;99961.25;6217861;22;20481;-77
2021/12/27 07:31:57;;;;;;;36.67;11.65;;;-6.80;99.90;;;-9.06;75.22;99954.50;6182656;22;20000;-77
2021/12/27 07:34:24;;;;;;;28.77;8.50;;;-6.80;99.90;;;-9.01;74.86;99962.25;6226780;22;20016;-77
2021/12/27 07:36:55;;;;;;;34.85;10.32;;;-6.80;99.90;;;-9.01;75.33;99952.91;6201083;23;20446;-77
2021/12/27 07:39:24;;;;;;;44.75;13.60;;;-6.80;99.90;;;-8.97;74.75;99964.03;6217815;22;20016;-77
2021/12/27 07:41:50;;;;;;;42.03;12.48;;;-6.70;99.90;;;-8.97;74.82;99964.03;6218242;22;20004;-77
2021/12/27 07:44:17;;;;;;;41.13;12.40;;;-6.70;99.90;;;-9.00;74.98;99949.53;6219551;22;20075;-77
2021/12/27 07:46:45;;;;;;;52.10;16.23;;;-6.70;99.90;;;-8.94;74.61;99959.88;6203014;22;20023;-77
2021/12/27 07:49:16;;;;;;;49.75;14.10;;;-6.70;99.90;;;-8.94;74.53;99944.56;6217095;22;20047;-77
2021/12/27 07:51:43;;;;;;;40.63;12.35;;;-6.70;99.90;;;-8.89;74.75;99954.84;6218184;22;20007;-77
2021/12/27 07:54:09;;;;;;;37.97;11.63;;;-6.70;99.90;;;-8.91;74.18;99938.66;6202746;22;20098;-77
2021/12/27 07:56:37;;;;;;;46.75;11.95;;;-6.70;99.90;;;-8.81;74.03;99952.41;6195443;22;20119;-78
2021/12/27 07:59:06;;;;;;;64.80;18.65;;;-6.60;99.90;;;-8.80;74.34;99949.91;6108782;22;20038;-78
2021/12/27 08:01:35;;;;;;;57.35;17.33;;;-6.60;99.90;;;-8.73;74.15;99948.34;6168541;22;20016;-79
2021/12/27 08:04:03;;;;;;;38.22;12.18;;;-6.50;99.90;;;-8.68;73.74;99951.84;6136691;23;20004;-79
2021/12/27 08:06:29;;;;;;;42.13;12.18;;;-6.50;99.90;;;-8.63;73.35;99946.81;6125659;22;20406;-78
2021/12/27 08:08:55;;;;;;;20.17;7.40;;;-6.50;99.90;;;-8.59;74.01;99946.91;6161345;23;20020;-79
2021/12/27 08:11:21;;;;;;;37.75;10.60;;;-6.40;99.90;;;-8.56;73.58;99944.41;6184040;22;20554;-78
2021/12/27 08:13:48;;;;;;;29.08;9.68;;;-6.40;99.90;;;-8.54;73.21;99937.63;6159470;22;20067;-77
2021/12/27 08:16:17;;;;;;;42.03;12.00;;;-6.30;99.90;;;-8.50;72.81;99944.50;6180616;22;20009;-78
2021/12/27 08:18:46;;;;;;;44.45;13.75;;;-6.30;99.90;;;-8.42;72.70;99948.88;6191138;22;20028;-78
2021/12/27 08:21:21;;;;;;;45.30;13.52;;;-6.20;99.90;;;-8.35;72.83;99943.03;6163012;22;19999;-78
2021/12/27 08:23:47;;;;;;;43.05;10.93;;;-6.20;99.90;;;-8.30;72.65;99949.06;6166609;22;20012;-77
2021/12/27 08:26:14;;;;;;;38.50;11.70;;;-6.10;99.90;;;-8.21;72.13;99953.47;6133246;22;20012;-78
2021/12/27 08:28:46;;;;;;;31.58;10.25;;;-6.10;99.90;;;-8.19;72.37;99949.25;6185130;22;20040;-78
2021/12/27 08:31:12;;;;;;;31.65;10.55;;;-6.00;99.90;;;-8.15;72.72;99949.31;6169145;23;20000;-78
2021/12/27 08:33:38;;;;;;;33.78;12.25;;;-6.00;99.90;;;-8.08;72.77;99952.84;6186657;23;20058;-78
2021/12/27 08:36:04;;;;;;;34.75;11.55;;;-5.90;99.90;;;-8.01;72.47;99954.69;6098703;23;20008;-77
2021/12/27 08:38:30;;;;;;;32.15;11.48;;;-5.90;99.90;;;-7.98;72.41;99956.41;6155063;22;20087;-75
2021/12/27 08:40:56;;;;;;;44.63;13.02;;;-5.90;99.90;;;-7.97;72.52;99945.34;6193716;22;20005;-76
2021/12/27 08:43:22;;;;;;;31.50;10.10;;;-5.80;99.90;;;-8.01;73.05;99956.34;6183115;22;20027;-77
2021/12/27 08:45:50;;;;;;;39.28;11.95;;;-5.80;99.90;;;-7.92;72.96;99959.94;6183078;23;20004;-76
2021/12/27 08:48:16;;;;;;;43.50;13.10;;;-5.80;99.90;;;-7.92;73.08;99959.94;6192848;22;20086;-77
2021/12/27 08:50:42;;;;;;;47.33;11.77;;;-5.70;99.90;;;-7.92;72.75;99944.59;6219734;22;19997;-76
2021/12/27 08:53:09;;;;;;;48.67;14.90;;;-5.80;99.90;;;-7.89;73.08;99944.63;6207062;22;20059;-77
2021/12/27 08:55:37;;;;;;;37.20;11.65;;;-5.70;99.90;;;-7.89;73.00;99938.66;6155750;22;20001;-78
2021/12/27 08:58:07;;;;;;;40.90;13.65;;;-5.70;99.90;;;-7.86;72.65;99939.59;6206247;22;20096;-78
2021/12/27 09:00:33;;;;;;;48.85;15.52;;;-5.70;99.90;;;-7.75;73.02;99934.63;6202433;22;20000;-77
2021/12/27 09:02:59;;;;;;;41.38;11.95;;;-5.60;99.90;;;-7.71;72.68;99928.72;6189959;23;20099;-77
2021/12/27 09:05:26;;;;;;;56.75;15.13;;;-5.60;99.90;;;-7.70;72.81;99937.25;6154391;22;20019;-76
2021/12/27 09:07:54;;;;;;;54.00;14.77;;;-5.60;99.90;;;-7.66;72.30;99937.31;6217164;22;20012;-77
2021/12/27 09:10:19;;;;;;;41.35;13.15;;;-5.50;99.90;;;-7.66;72.18;99933.91;6195019;22;20067;-74
2021/12/27 09:12:46;;;;;;;51.50;14.68;;;-5.50;99.90;;;-7.61;71.91;99950.16;6202198;22;20438;-74
2021/12/27 09:15:21;;;;;;;46.55;14.02;;;-5.40;99.90;;;-7.56;72.33;99947.66;6189568;23;20019;-75
2021/12/27 09:17:47;;;;;;;35.53;12.52;;;-5.50;99.90;;;-7.57;71.74;99948.50;6228637;22;20397;-74
2021/12/27 09:20:15;;;;;;;46.67;14.68;;;-5.40;99.90;;;-7.56;71.76;99951.06;6166671;22;20454;-75
2021/12/27 09:22:42;;;;;;;43.58;14.23;;;-5.40;99.90;;;-7.45;71.51;99954.66;6215462;22;20016;-75
2021/12/27 09:25:09;;;;;;;47.92;14.32;;;-5.40;99.90;;;-7.46;72.26;99941.84;6205841;22;20008;-75
2021/12/27 09:27:35;;;;;;;50.25;15.60;;;-5.40;99.90;;;-7.46;71.86;99941.84;6173362;22;20397;-75
2021/12/27 09:30:02;;;;;;;46.97;12.98;;;-5.30;99.90;;;-7.44;72.09;99948.69;6218278;22;20699;-75
2021/12/27 09:32:28;;;;;;;51.75;14.70;;;-5.30;99.90;;;-7.42;72.17;99935.94;6179859;22;20009;-74
2021/12/27 09:35:02;;;;;;;47.00;15.52;;;-5.30;99.90;;;-7.33;71.80;99937.75;6206274;22;20004;-75
2021/12/27 09:37:28;;;;;;;49.05;13.95;;;-5.20;99.90;;;-7.32;71.94;99942.91;6194297;22;20058;-75
2021/12/27 09:40:00;;;;;;;47.88;14.95;;;-5.20;99.90;;;-7.23;72.08;99947.28;6184186;22;20498;-74
2021/12/27 09:42:35;;;;;;;42.83;14.25;;;-5.10;99.90;;;-7.20;71.58;99941.34;6218996;22;20000;-76
2021/12/27 09:45:02;;;;;;;59.53;19.33;;;-5.10;99.90;;;-7.15;71.58;99932.00;6179874;22;20012;-75
2021/12/27 09:47:33;;;;;;;33.70;12.05;;;-5.10;99.90;;;-7.12;71.90;99932.06;6204569;22;20085;-75
2021/12/27 09:50:12;;;;;;;45.95;14.02;;;-5.00;99.90;;;-7.14;71.51;99931.19;6202121;22;20459;-76
2021/12/27 09:52:44;;;;;;;44.08;14.30;;;-5.00;99.90;;;-7.12;71.24;99930.34;6178362;23;20043;-77
2021/12/27 09:55:12;;;;;;;41.60;11.25;;;-5.00;99.90;;;-7.11;71.06;99938.88;6161495;23;20004;-77
2021/12/27 09:57:47;;;;;;;51.58;15.27;;;-4.90;99.90;;;-6.97;71.56;99945.03;6188215;22;20012;-76
2021/12/27 10:00:15;;;;;;;42.88;13.68;;;-4.90;99.90;;;-6.97;71.93;99939.91;6194984;22;20382;-75
2021/12/27 10:02:52;;;;;;;44.63;12.38;;;-4.80;99.90;;;-6.90;71.92;99933.16;6189731;22;20054;-76
2021/12/27 10:05:30;;;;;;;64.53;16.30;;;-4.70;99.90;;;-6.76;71.65;99940.97;6192371;22;20513;-77